Terminal Aerodrome Forecast
Issued by NWS

Home | Current Version | Previous Version | Text Only | Print | Product List | Glossary On
Versions: 1 2 3 4 5 6 7 8 9 10 11 12 13 14 15 16 17 18 19 20 21 22
000
FTUS45 KABQ 301500 AAA
TAFTCC
TAF AMD
KTCC 301506Z 3015/3112 03006KT P6SM BKN025
     FM301700 03014G22KT P6SM BKN050
     FM310200 04014KT P6SM SCT120
     FM310900 04006KT P6SM BKN020=

USA.gov is the U.S. government's official web portal to all federal, state and local government web resources and services.